createdAt,value
2022-12-31T00:02:27.073Z,84.53
2022-12-31T00:04:57.126Z,84.65
2022-12-31T00:08:08.818Z,84.76
2022-12-31T00:10:54.928Z,84.61
2022-12-31T00:17:29.751Z,84.61
2022-12-31T00:19:56.694Z,84.56
2022-12-31T00:22:30.477Z,84.47
2022-12-31T00:25:00.467Z,84.75
2022-12-31T00:27:56.211Z,84.62
2022-12-31T00:30:26.287Z,84.75
2022-12-31T00:32:55.995Z,84.60
2022-12-31T00:35:22.798Z,84.60
2022-12-31T00:40:58.072Z,84.24
2022-12-31T00:44:32.882Z,84.58
2022-12-31T00:47:52.326Z,84.37
2022-12-31T00:50:41.329Z,84.43
2022-12-31T01:01:10.613Z,84.15
2022-12-31T01:11:00.318Z,84.49
2022-12-31T01:24:37.098Z,84.21
2022-12-31T01:27:18.933Z,84.48
2022-12-31T02:10:10.329Z,84.80
2022-12-31T02:21:29.519Z,84.48
2022-12-31T02:24:18.425Z,84.50
2022-12-31T02:27:11.251Z,84.97
2022-12-31T02:30:02.331Z,85.05
2022-12-31T02:33:09.158Z,84.90
2022-12-31T02:36:12.471Z,84.99
2022-12-31T02:38:45.282Z,84.99
2022-12-31T02:41:48.499Z,84.99
2022-12-31T02:44:42.176Z,84.85
2022-12-31T02:47:09.372Z,85.31
2022-12-31T02:49:59.344Z,85.08
2022-12-31T02:57:21.548Z,85.38
2022-12-31T03:00:45.843Z,85.44
2022-12-31T03:03:49.880Z,85.31
2022-12-31T03:06:30.480Z,85.41
2022-12-31T03:17:45.353Z,85.64
2022-12-31T03:20:58.841Z,86.00
2022-12-31T03:24:19.058Z,85.73
2022-12-31T03:34:10.952Z,85.93
2022-12-31T03:36:43.179Z,86.03
2022-12-31T03:40:16.262Z,86.00
2022-12-31T03:42:58.167Z,85.86
2022-12-31T03:45:43.404Z,86.21
2022-12-31T03:48:35.536Z,86.25
2022-12-31T03:51:52.148Z,86.10
2022-12-31T03:54:53.811Z,86.10
2022-12-31T03:58:09.328Z,86.14
2022-12-31T04:00:52.181Z,85.91
2022-12-31T04:06:31.036Z,85.78
2022-12-31T04:09:06.010Z,85.89
2022-12-31T04:11:49.403Z,86.24
2022-12-31T04:15:16.314Z,86.16
2022-12-31T04:19:01.934Z,86.44
2022-12-31T04:22:18.649Z,86.53
2022-12-31T04:36:27.588Z,86.75
2022-12-31T05:32:28.419Z,86.81
2022-12-31T05:34:55.402Z,87.08
2022-12-31T05:37:22.542Z,87.14
2022-12-31T05:39:49.548Z,87.10
2022-12-31T05:42:16.331Z,87.35
2022-12-31T05:44:43.147Z,87.49
2022-12-31T05:47:09.933Z,87.40
2022-12-31T05:49:36.687Z,87.43
2022-12-31T05:52:06.916Z,87.75
2022-12-31T05:54:33.882Z,87.63
2022-12-31T05:57:00.935Z,87.63
2022-12-31T05:59:30.464Z,87.86
2022-12-31T06:01:59.836Z,87.99
2022-12-31T06:04:27.712Z,88.19
2022-12-31T06:06:54.509Z,88.44
2022-12-31T06:09:21.317Z,88.57
2022-12-31T06:11:48.224Z,88.95
2022-12-31T06:14:40.810Z,88.83
2022-12-31T06:17:13.170Z,89.47
2022-12-31T06:23:06.573Z,89.54
2022-12-31T06:25:35.474Z,89.70
2022-12-31T06:28:04.475Z,90.04
2022-12-31T06:30:31.284Z,89.88
2022-12-31T06:37:00.646Z,90.12
2022-12-31T06:46:48.317Z,90.51
2022-12-31T06:49:15.997Z,90.54
2022-12-31T06:51:42.812Z,90.51
2022-12-31T06:54:09.502Z,90.55
2022-12-31T06:56:36.397Z,90.74
2022-12-31T06:59:03.837Z,90.78
2022-12-31T07:01:36.826Z,90.49
2022-12-31T07:04:25.777Z,90.75
2022-12-31T07:07:04.747Z,90.37
2022-12-31T07:09:38.599Z,90.64
2022-12-31T07:12:14.203Z,90.75
2022-12-31T07:14:49.754Z,90.71
2022-12-31T07:17:28.689Z,90.30
2022-12-31T07:20:13.221Z,90.47
2022-12-31T07:22:40.722Z,90.44
2022-12-31T07:25:13.149Z,90.36
2022-12-31T07:27:52.663Z,90.15
2022-12-31T07:30:25.392Z,90.38
2022-12-31T07:33:02.871Z,90.47
2022-12-31T07:36:01.422Z,90.33
2022-12-31T07:38:46.164Z,89.93
2022-12-31T07:41:18.165Z,90.10
2022-12-31T07:43:58.649Z,89.76
2022-12-31T07:46:53.084Z,89.73
2022-12-31T07:49:20.180Z,89.83
2022-12-31T07:51:53.245Z,89.74
2022-12-31T07:56:27.394Z,89.74
2022-12-31T07:59:25.100Z,89.59
2022-12-31T08:02:31.755Z,89.48
2022-12-31T08:05:37.209Z,88.88
2022-12-31T08:08:36.265Z,88.77
2022-12-31T08:11:14.924Z,88.67
2022-12-31T08:13:42.684Z,88.72
2022-12-31T08:16:26.078Z,88.63
2022-12-31T08:19:14.728Z,88.53
2022-12-31T08:22:00.095Z,87.99
2022-12-31T08:25:04.830Z,88.03
2022-12-31T08:27:53.208Z,87.55
2022-12-31T08:30:38.449Z,87.69
2022-12-31T08:33:18.491Z,87.40
2022-12-31T08:36:05.108Z,87.19
2022-12-31T08:39:12.205Z,87.20
2022-12-31T08:41:53.634Z,86.98
2022-12-31T08:44:39.147Z,86.84
2022-12-31T08:47:23.037Z,86.68
2022-12-31T08:52:40.902Z,86.43
2022-12-31T08:55:08.473Z,86.27
2022-12-31T08:57:42.774Z,86.53
2022-12-31T09:00:18.172Z,86.26
2022-12-31T09:03:00.892Z,86.38
2022-12-31T09:05:54.267Z,86.41
2022-12-31T09:08:48.879Z,86.25
2022-12-31T09:11:37.297Z,85.92
2022-12-31T09:14:34.830Z,85.82
2022-12-31T09:17:07.794Z,85.86
2022-12-31T09:19:37.034Z,85.56
2022-12-31T09:22:26.650Z,85.08
2022-12-31T09:24:55.312Z,85.23
2022-12-31T09:28:05.520Z,84.79
2022-12-31T09:30:51.691Z,84.85
2022-12-31T09:33:59.918Z,84.66
2022-12-31T09:36:46.596Z,84.50
2022-12-31T09:39:36.791Z,84.47
2022-12-31T09:42:31.292Z,84.30
2022-12-31T09:45:31.054Z,84.50
2022-12-31T09:48:16.463Z,84.32
2022-12-31T09:51:38.306Z,84.07
2022-12-31T09:54:34.151Z,84.42
2022-12-31T09:57:24.709Z,84.33
2022-12-31T10:00:48.729Z,84.40
2022-12-31T10:03:22.313Z,84.22
2022-12-31T10:05:56.598Z,84.35
2022-12-31T10:08:32.618Z,84.52
2022-12-31T10:11:05.557Z,85.24
2022-12-31T10:13:54.933Z,85.60
2022-12-31T10:16:28.740Z,86.09
2022-12-31T10:19:21.149Z,86.05
2022-12-31T10:22:26.939Z,86.25
2022-12-31T10:25:18.474Z,86.68
2022-12-31T10:28:09.972Z,87.06
2022-12-31T10:30:39.692Z,87.32
2022-12-31T10:33:35.573Z,87.79
2022-12-31T10:36:14.404Z,88.16
2022-12-31T10:39:15.393Z,88.33
2022-12-31T10:42:12.350Z,88.56
2022-12-31T10:45:09.156Z,88.98
2022-12-31T10:48:03.954Z,89.03
2022-12-31T10:50:39.671Z,89.31
2022-12-31T10:53:18.431Z,89.44
2022-12-31T10:56:12.475Z,89.51
2022-12-31T10:59:02.157Z,89.87
2022-12-31T11:01:49.027Z,90.14
2022-12-31T11:04:34.734Z,90.04
2022-12-31T11:07:40.759Z,90.13
2022-12-31T11:10:48.974Z,90.37
2022-12-31T11:13:35.453Z,90.30
2022-12-31T11:16:07.716Z,90.82
2022-12-31T11:19:01.159Z,90.64
2022-12-31T11:22:01.963Z,90.72
2022-12-31T11:24:43.680Z,91.16
2022-12-31T11:31:59.292Z,91.16
2022-12-31T11:34:41.132Z,90.88
2022-12-31T11:37:47.524Z,91.00
2022-12-31T11:40:14.413Z,91.04
2022-12-31T11:42:52.456Z,91.39
2022-12-31T11:45:51.943Z,91.12
2022-12-31T11:48:35.822Z,91.25
2022-12-31T11:51:21.477Z,91.30
2022-12-31T11:54:17.995Z,91.05
2022-12-31T11:56:50.598Z,91.05
2022-12-31T11:59:19.839Z,91.10
2022-12-31T12:02:01.643Z,90.70
2022-12-31T12:04:28.403Z,90.63
2022-12-31T12:06:55.498Z,90.77
2022-12-31T12:09:29.124Z,90.77
2022-12-31T12:12:05.186Z,90.43
2022-12-31T12:14:41.257Z,90.49
2022-12-31T12:17:19.232Z,90.67
2022-12-31T12:19:53.539Z,90.40
2022-12-31T12:22:25.675Z,90.39
2022-12-31T12:24:58.520Z,90.26
2022-12-31T12:27:29.481Z,90.34
2022-12-31T12:29:56.538Z,90.29
2022-12-31T12:32:29.014Z,90.00
2022-12-31T12:34:58.078Z,89.81
2022-12-31T12:37:26.247Z,89.33
2022-12-31T12:40:03.520Z,88.99
2022-12-31T12:42:30.638Z,88.63
2022-12-31T12:45:02.538Z,88.24
2022-12-31T12:47:38.164Z,87.59
2022-12-31T12:50:35.470Z,87.06
2022-12-31T12:53:15.779Z,86.00
2022-12-31T12:56:06.516Z,85.90
2022-12-31T12:58:42.353Z,85.19
2022-12-31T13:01:36.852Z,84.48
2022-12-31T13:04:37.130Z,83.78
2022-12-31T13:07:19.395Z,83.14
2022-12-31T13:10:16.017Z,82.77
2022-12-31T13:13:22.722Z,82.08
2022-12-31T13:15:52.526Z,80.79
2022-12-31T13:18:58.351Z,80.47
2022-12-31T13:21:43.905Z,80.15
2022-12-31T13:24:22.518Z,80.02
2022-12-31T13:27:01.013Z,79.72
2022-12-31T13:29:29.571Z,79.61
2022-12-31T13:32:07.874Z,79.39
2022-12-31T13:34:37.935Z,79.09
2022-12-31T13:37:23.018Z,78.62
2022-12-31T13:40:00.221Z,78.77
2022-12-31T13:42:44.237Z,78.56
2022-12-31T13:45:13.979Z,78.17
2022-12-31T13:47:57.409Z,78.01
2022-12-31T13:50:41.146Z,77.66
2022-12-31T13:53:22.212Z,77.48
2022-12-31T13:56:28.877Z,77.69
2022-12-31T13:59:05.039Z,77.26
2022-12-31T14:01:39.727Z,77.16
2022-12-31T14:04:17.360Z,77.22
2022-12-31T14:06:49.777Z,77.21
2022-12-31T14:09:24.056Z,77.11
2022-12-31T14:12:17.966Z,76.90
2022-12-31T14:15:11.756Z,76.46
2022-12-31T14:18:01.014Z,76.21
2022-12-31T14:20:39.781Z,75.91
2022-12-31T14:23:45.535Z,75.20
2022-12-31T14:26:21.545Z,74.51
2022-12-31T14:28:52.253Z,74.62
2022-12-31T14:31:38.126Z,74.95
2022-12-31T14:34:22.241Z,75.99
2022-12-31T14:37:11.985Z,76.71
2022-12-31T14:39:57.123Z,77.33
2022-12-31T14:42:31.855Z,77.79
2022-12-31T14:45:25.183Z,78.03
2022-12-31T14:48:26.493Z,78.68
2022-12-31T14:50:54.057Z,79.18
2022-12-31T14:53:27.282Z,79.15
2022-12-31T14:56:06.636Z,79.24
2022-12-31T14:58:43.468Z,79.93
2022-12-31T15:01:42.729Z,79.84
2022-12-31T15:04:47.698Z,79.97
2022-12-31T15:08:05.129Z,80.40
2022-12-31T15:11:10.634Z,80.43
2022-12-31T15:13:57.161Z,80.44
2022-12-31T15:16:52.321Z,80.17
2022-12-31T15:19:19.126Z,80.13
2022-12-31T15:21:54.962Z,80.11
2022-12-31T15:24:24.175Z,80.11
2022-12-31T15:27:06.682Z,79.78
2022-12-31T15:29:44.793Z,79.49
2022-12-31T15:32:19.860Z,79.09
2022-12-31T15:34:48.053Z,79.09
2022-12-31T15:42:41.377Z,78.85
2022-12-31T15:46:38.584Z,78.54
2022-12-31T15:53:11.263Z,77.60
2022-12-31T15:55:51.391Z,77.54
2022-12-31T16:02:09.010Z,77.55
2022-12-31T16:05:31.157Z,77.64
2022-12-31T16:12:39.461Z,77.19
2022-12-31T16:25:02.670Z,77.29
2022-12-31T16:27:40.481Z,77.33
2022-12-31T16:30:24.787Z,77.37
2022-12-31T16:33:41.195Z,77.03
2022-12-31T16:37:43.506Z,77.08
2022-12-31T16:41:03.678Z,77.10
2022-12-31T16:43:41.766Z,77.00
2022-12-31T16:46:16.133Z,77.19
2022-12-31T16:48:48.679Z,77.21
2022-12-31T16:51:23.080Z,77.00
2022-12-31T16:54:18.666Z,76.52
2022-12-31T16:57:40.221Z,76.80
2022-12-31T17:02:22.475Z,76.14
2022-12-31T17:07:33.757Z,75.87
2022-12-31T17:14:35.212Z,75.66
2022-12-31T17:17:28.693Z,75.38
2022-12-31T17:50:31.686Z,73.96
2022-12-31T17:53:12.485Z,74.08
2022-12-31T17:55:39.264Z,73.81
2022-12-31T17:58:06.709Z,73.64
2022-12-31T18:00:34.282Z,73.67
2022-12-31T18:03:01.043Z,73.95
2022-12-31T18:05:27.722Z,73.30
2022-12-31T18:07:54.803Z,73.26
2022-12-31T18:10:23.194Z,73.44
2022-12-31T18:12:56.184Z,73.19
2022-12-31T18:15:24.536Z,72.96
2022-12-31T18:17:51.373Z,73.31
2022-12-31T18:20:18.675Z,72.70
2022-12-31T18:22:45.684Z,72.71
2022-12-31T18:25:23.717Z,72.63
2022-12-31T18:27:51.698Z,72.54
2022-12-31T18:30:19.007Z,72.41
2022-12-31T18:32:46.789Z,72.30
2022-12-31T18:36:07.004Z,72.46
2022-12-31T18:38:16.971Z,72.38
2022-12-31T18:40:50.102Z,72.52
2022-12-31T18:43:18.409Z,72.45
2022-12-31T18:45:46.418Z,72.19
2022-12-31T18:48:13.513Z,72.48
2022-12-31T18:50:43.044Z,72.46
2022-12-31T18:53:21.609Z,72.46
2022-12-31T18:55:54.426Z,72.10
2022-12-31T18:58:21.793Z,72.53
2022-12-31T19:00:49.275Z,72.38
2022-12-31T19:03:23.935Z,72.00
2022-12-31T19:05:52.059Z,72.38
2022-12-31T19:08:22.995Z,72.36
2022-12-31T19:10:51.206Z,72.21
2022-12-31T19:13:19.690Z,72.26
2022-12-31T19:15:47.273Z,72.46
2022-12-31T19:18:14.070Z,72.25
2022-12-31T19:20:41.237Z,72.08
2022-12-31T19:23:18.038Z,72.23
2022-12-31T19:25:45.898Z,72.11
2022-12-31T19:28:24.238Z,71.99
2022-12-31T19:30:51.567Z,72.31
2022-12-31T19:33:19.049Z,72.47
2022-12-31T19:35:46.445Z,72.50
2022-12-31T19:38:23.264Z,72.16
2022-12-31T19:40:51.027Z,72.42
2022-12-31T19:43:19.849Z,72.02
2022-12-31T19:45:46.822Z,72.23
2022-12-31T19:48:17.316Z,72.27
2022-12-31T19:50:49.359Z,72.46
2022-12-31T19:53:22.021Z,72.34
2022-12-31T19:55:49.251Z,72.56
2022-12-31T19:58:21.539Z,72.53
2022-12-31T20:00:55.598Z,72.35
2022-12-31T20:03:25.530Z,72.50
2022-12-31T20:06:01.113Z,72.00
2022-12-31T20:08:27.905Z,72.01
2022-12-31T20:10:58.863Z,72.39
2022-12-31T20:13:27.168Z,71.91
2022-12-31T20:15:54.368Z,72.16
2022-12-31T20:18:23.071Z,72.11
2022-12-31T20:20:55.553Z,71.72
2022-12-31T20:23:22.942Z,71.95
2022-12-31T20:25:59.803Z,71.58
2022-12-31T20:28:27.147Z,71.73
2022-12-31T20:30:53.954Z,71.68
2022-12-31T20:33:20.833Z,71.68
2022-12-31T20:35:47.647Z,71.19
2022-12-31T20:38:14.949Z,71.55
2022-12-31T20:40:46.724Z,71.13
2022-12-31T20:43:14.380Z,71.20
2022-12-31T20:45:41.757Z,70.49
2022-12-31T20:48:08.872Z,70.80
2022-12-31T20:50:37.924Z,70.51
2022-12-31T20:53:04.866Z,70.44
2022-12-31T20:55:34.975Z,70.51
2022-12-31T20:58:01.891Z,70.32
2022-12-31T21:00:28.652Z,70.04
2022-12-31T21:03:04.100Z,70.06
2022-12-31T21:05:35.269Z,69.81
2022-12-31T21:08:02.174Z,69.29
2022-12-31T21:10:28.943Z,69.52
2022-12-31T21:12:55.684Z,69.32
2022-12-31T21:15:24.923Z,69.13
2022-12-31T21:17:51.823Z,69.02
2022-12-31T21:20:18.549Z,69.06
2022-12-31T21:22:45.370Z,68.70
2022-12-31T21:25:12.190Z,68.56
2022-12-31T21:27:39.333Z,68.50
2022-12-31T21:30:21.835Z,68.31
2022-12-31T21:32:48.696Z,67.92
2022-12-31T21:35:41.650Z,67.91
2022-12-31T21:38:04.021Z,67.70
2022-12-31T21:40:31.468Z,67.66
2022-12-31T21:42:58.597Z,67.77
2022-12-31T21:45:25.379Z,67.46
2022-12-31T21:48:10.915Z,67.10
2022-12-31T21:50:37.708Z,67.06
2022-12-31T21:53:04.498Z,66.88
2022-12-31T21:55:50.071Z,66.67
2022-12-31T21:58:26.422Z,66.79
2022-12-31T22:01:13.395Z,67.27
2022-12-31T22:03:40.744Z,66.82
2022-12-31T22:06:12.654Z,66.30
2022-12-31T22:08:40.752Z,66.66
2022-12-31T22:11:08.121Z,66.45
2022-12-31T22:13:37.022Z,66.30
2022-12-31T22:16:06.073Z,66.32
2022-12-31T22:18:35.630Z,66.05
2022-12-31T22:21:04.062Z,65.82
2022-12-31T22:23:32.040Z,65.94
2022-12-31T22:25:59.089Z,65.65
2022-12-31T22:28:41.385Z,65.60
2022-12-31T22:31:10.177Z,65.63
2022-12-31T22:33:37.131Z,65.44
2022-12-31T22:36:11.044Z,65.00
2022-12-31T22:38:37.774Z,64.89
2022-12-31T22:41:11.114Z,65.04
2022-12-31T22:43:40.663Z,64.97
2022-12-31T22:46:16.850Z,65.11
2022-12-31T22:48:43.614Z,65.14
2022-12-31T22:51:11.654Z,64.98
2022-12-31T22:53:39.981Z,64.91
2022-12-31T22:56:08.591Z,64.93
2022-12-31T22:58:35.438Z,64.57
2022-12-31T23:01:15.525Z,64.43
2022-12-31T23:03:42.469Z,64.59
2022-12-31T23:06:09.235Z,64.29
2022-12-31T23:08:35.997Z,64.45
2022-12-31T23:11:06.219Z,64.51
2022-12-31T23:14:00.168Z,64.37
2022-12-31T23:16:48.464Z,63.89
2022-12-31T23:19:34.817Z,64.01
2022-12-31T23:22:20.158Z,63.86
2022-12-31T23:24:46.978Z,63.99
2022-12-31T23:27:13.833Z,63.51
2022-12-31T23:29:46.516Z,63.61
2022-12-31T23:32:15.680Z,63.18
2022-12-31T23:34:43.356Z,63.12
2022-12-31T23:37:10.495Z,63.39
2022-12-31T23:39:37.311Z,63.34
2022-12-31T23:42:04.535Z,63.06
2022-12-31T23:44:31.290Z,63.22
2022-12-31T23:46:58.272Z,63.08
2022-12-31T23:49:25.869Z,62.68
2022-12-31T23:51:52.751Z,62.80
2022-12-31T23:54:19.546Z,62.79
2022-12-31T23:56:46.278Z,62.74
2022-12-31T23:59:13.296Z,62.29
